sensor_id;sensor_type;location;lat;lon;timestamp;temperature;humidity
41256;DHT22;26989;45.524;10.938;2023-05-07T00:00:28;17.10;99.90
41256;DHT22;26989;45.524;10.938;2023-05-07T00:02:56;17.00;99.90
41256;DHT22;26989;45.524;10.938;2023-05-07T00:05:23;17.00;99.90
41256;DHT22;26989;45.524;10.938;2023-05-07T00:07:50;17.10;99.90
41256;DHT22;26989;45.524;10.938;2023-05-07T00:10:25;17.10;99.90
41256;DHT22;26989;45.524;10.938;2023-05-07T00:12:52;17.00;99.90
41256;DHT22;26989;45.524;10.938;2023-05-07T00:15:19;17.10;99.90
41256;DHT22;26989;45.524;10.938;2023-05-07T00:17:46;17.10;99.90
41256;DHT22;26989;45.524;10.938;2023-05-07T00:20:13;17.00;99.90
41256;DHT22;26989;45.524;10.938;2023-05-07T00:22:40;17.10;99.90
41256;DHT22;26989;45.524;10.938;2023-05-07T00:25:07;17.10;99.90
41256;DHT22;26989;45.524;10.938;2023-05-07T00:27:34;17.10;99.90
41256;DHT22;26989;45.524;10.938;2023-05-07T00:30:01;17.30;99.90
41256;DHT22;26989;45.524;10.938;2023-05-07T00:32:28;17.20;99.90
41256;DHT22;26989;45.524;10.938;2023-05-07T00:34:55;17.20;99.90
41256;DHT22;26989;45.524;10.938;2023-05-07T00:37:22;17.20;99.90
41256;DHT22;26989;45.524;10.938;2023-05-07T00:39:49;17.20;99.90
41256;DHT22;26989;45.524;10.938;2023-05-07T00:42:16;17.20;99.90
41256;DHT22;26989;45.524;10.938;2023-05-07T00:44:42;17.20;99.90
41256;DHT22;26989;45.524;10.938;2023-05-07T00:47:10;17.20;99.90
41256;DHT22;26989;45.524;10.938;2023-05-07T00:49:46;17.20;99.90
41256;DHT22;26989;45.524;10.938;2023-05-07T00:52:16;17.20;99.90
41256;DHT22;26989;45.524;10.938;2023-05-07T00:54:44;17.20;99.90
41256;DHT22;26989;45.524;10.938;2023-05-07T01:41:31;17.10;99.90
41256;DHT22;26989;45.524;10.938;2023-05-07T01:47:48;17.10;99.90
41256;DHT22;26989;45.524;10.938;2023-05-07T02:06:14;17.10;99.90
41256;DHT22;26989;45.524;10.938;2023-05-07T02:12:41;17.10;99.90
41256;DHT22;26989;45.524;10.938;2023-05-07T03:52:55;16.80;99.90
41256;DHT22;26989;45.524;10.938;2023-05-07T05:05:17;17.60;99.90
41256;DHT22;26989;45.524;10.938;2023-05-07T05:07:44;17.70;99.90
41256;DHT22;26989;45.524;10.938;2023-05-07T05:37:05;20.40;99.90
41256;DHT22;26989;45.524;10.938;2023-05-07T05:55:28;20.60;99.90
41256;DHT22;26989;45.524;10.938;2023-05-07T06:42:10;28.20;91.30
41256;DHT22;26989;45.524;10.938;2023-05-07T06:59:21;23.70;96.20
41256;DHT22;26989;45.524;10.938;2023-05-07T07:10:12;23.60;96.70
41256;DHT22;26989;45.524;10.938;2023-05-07T07:35:42;24.60;95.20
41256;DHT22;26989;45.524;10.938;2023-05-07T07:49:16;24.60;95.20
41256;DHT22;26989;45.524;10.938;2023-05-07T07:51:43;24.90;95.20
41256;DHT22;26989;45.524;10.938;2023-05-07T07:54:10;24.80;95.10
41256;DHT22;26989;45.524;10.938;2023-05-07T07:56:38;25.00;94.70
41256;DHT22;26989;45.524;10.938;2023-05-07T07:59:05;24.90;94.80
41256;DHT22;26989;45.524;10.938;2023-05-07T08:01:32;24.80;94.60
41256;DHT22;26989;45.524;10.938;2023-05-07T08:03:59;25.10;94.40
41256;DHT22;26989;45.524;10.938;2023-05-07T08:06:27;25.20;94.30
41256;DHT22;26989;45.524;10.938;2023-05-07T08:08:54;25.40;94.00
41256;DHT22;26989;45.524;10.938;2023-05-07T08:11:21;25.50;94.40
41256;DHT22;26989;45.524;10.938;2023-05-07T08:13:48;25.40;94.00
41256;DHT22;26989;45.524;10.938;2023-05-07T08:16:15;25.30;94.00
41256;DHT22;26989;45.524;10.938;2023-05-07T08:18:42;25.40;94.10
41256;DHT22;26989;45.524;10.938;2023-05-07T08:21:09;25.70;93.50
41256;DHT22;26989;45.524;10.938;2023-05-07T08:23:35;25.90;92.90
41256;DHT22;26989;45.524;10.938;2023-05-07T08:26:02;25.80;92.90
41256;DHT22;26989;45.524;10.938;2023-05-07T08:28:29;25.50;92.70
41256;DHT22;26989;45.524;10.938;2023-05-07T08:31:00;25.40;93.20
41256;DHT22;26989;45.524;10.938;2023-05-07T08:33:28;25.40;93.50
41256;DHT22;26989;45.524;10.938;2023-05-07T08:35:54;25.40;93.40
41256;DHT22;26989;45.524;10.938;2023-05-07T08:38:21;25.60;93.50
41256;DHT22;26989;45.524;10.938;2023-05-07T08:40:50;25.50;93.10
41256;DHT22;26989;45.524;10.938;2023-05-07T08:43:26;25.30;93.60
41256;DHT22;26989;45.524;10.938;2023-05-07T08:46:00;25.50;93.10
41256;DHT22;26989;45.524;10.938;2023-05-07T08:48:31;25.50;93.40
41256;DHT22;26989;45.524;10.938;2023-05-07T08:50:59;25.80;92.80
41256;DHT22;26989;45.524;10.938;2023-05-07T08:53:26;26.10;92.70
41256;DHT22;26989;45.524;10.938;2023-05-07T08:55:53;26.10;92.80
41256;DHT22;26989;45.524;10.938;2023-05-07T08:58:21;26.30;92.80
41256;DHT22;26989;45.524;10.938;2023-05-07T09:00:48;26.60;92.50
41256;DHT22;26989;45.524;10.938;2023-05-07T09:03:16;26.60;91.60
41256;DHT22;26989;45.524;10.938;2023-05-07T09:05:43;26.60;92.70
41256;DHT22;26989;45.524;10.938;2023-05-07T09:10:44;27.10;91.30
41256;DHT22;26989;45.524;10.938;2023-05-07T09:13:15;26.80;91.50
41256;DHT22;26989;45.524;10.938;2023-05-07T09:15:45;26.60;91.90
41256;DHT22;26989;45.524;10.938;2023-05-07T09:18:13;27.10;91.60
41256;DHT22;26989;45.524;10.938;2023-05-07T09:20:42;27.30;90.90
41256;DHT22;26989;45.524;10.938;2023-05-07T09:23:09;26.50;91.60
41256;DHT22;26989;45.524;10.938;2023-05-07T09:25:36;26.40;91.40
41256;DHT22;26989;45.524;10.938;2023-05-07T09:28:04;26.20;91.10
41256;DHT22;26989;45.524;10.938;2023-05-07T09:30:34;26.10;91.40
41256;DHT22;26989;45.524;10.938;2023-05-07T09:33:03;25.50;92.00
41256;DHT22;26989;45.524;10.938;2023-05-07T09:35:30;26.10;91.60
41256;DHT22;26989;45.524;10.938;2023-05-07T09:37:59;24.90;92.60
41256;DHT22;26989;45.524;10.938;2023-05-07T09:40:30;23.90;93.80
41256;DHT22;26989;45.524;10.938;2023-05-07T09:43:09;24.80;92.80
41256;DHT22;26989;45.524;10.938;2023-05-07T09:45:37;25.40;92.50
41256;DHT22;26989;45.524;10.938;2023-05-07T09:48:06;25.70;91.60
41256;DHT22;26989;45.524;10.938;2023-05-07T09:50:42;25.80;91.70
41256;DHT22;26989;45.524;10.938;2023-05-07T09:53:14;26.20;91.50
41256;DHT22;26989;45.524;10.938;2023-05-07T09:55:47;26.40;91.40
41256;DHT22;26989;45.524;10.938;2023-05-07T09:58:18;26.00;91.20
41256;DHT22;26989;45.524;10.938;2023-05-07T10:00:49;26.10;91.40
41256;DHT22;26989;45.524;10.938;2023-05-07T10:03:17;26.60;91.40
41256;DHT22;26989;45.524;10.938;2023-05-07T10:05:46;26.70;90.90
41256;DHT22;26989;45.524;10.938;2023-05-07T10:08:15;26.60;90.50
41256;DHT22;26989;45.524;10.938;2023-05-07T10:10:51;25.80;91.50
41256;DHT22;26989;45.524;10.938;2023-05-07T10:13:21;26.10;91.60
41256;DHT22;26989;45.524;10.938;2023-05-07T10:15:49;26.30;91.90
41256;DHT22;26989;45.524;10.938;2023-05-07T10:18:18;25.30;92.10
41256;DHT22;26989;45.524;10.938;2023-05-07T10:20:51;25.90;92.00
41256;DHT22;26989;45.524;10.938;2023-05-07T10:23:23;26.40;91.50
41256;DHT22;26989;45.524;10.938;2023-05-07T10:25:50;25.90;91.80
41256;DHT22;26989;45.524;10.938;2023-05-07T10:28:26;25.70;92.00
41256;DHT22;26989;45.524;10.938;2023-05-07T10:33:39;26.20;92.30
41256;DHT22;26989;45.524;10.938;2023-05-07T10:36:07;26.30;92.10
41256;DHT22;26989;45.524;10.938;2023-05-07T10:38:35;26.50;92.00
41256;DHT22;26989;45.524;10.938;2023-05-07T10:41:02;25.60;92.80
41256;DHT22;26989;45.524;10.938;2023-05-07T10:43:42;25.40;93.10
41256;DHT22;26989;45.524;10.938;2023-05-07T10:46:17;24.70;93.80
41256;DHT22;26989;45.524;10.938;2023-05-07T10:51:28;25.50;93.60
41256;DHT22;26989;45.524;10.938;2023-05-07T10:56:38;26.10;93.20
41256;DHT22;26989;45.524;10.938;2023-05-07T11:02:01;25.90;92.90
41256;DHT22;26989;45.524;10.938;2023-05-07T11:04:34;25.80;93.50
41256;DHT22;26989;45.524;10.938;2023-05-07T11:15:13;26.10;92.90
41256;DHT22;26989;45.524;10.938;2023-05-07T11:17:59;25.30;93.80
41256;DHT22;26989;45.524;10.938;2023-05-07T11:20:58;25.10;94.10
41256;DHT22;26989;45.524;10.938;2023-05-07T11:26:16;25.40;94.00
41256;DHT22;26989;45.524;10.938;2023-05-07T11:28:59;25.80;93.80
41256;DHT22;26989;45.524;10.938;2023-05-07T11:31:41;25.90;93.50
41256;DHT22;26989;45.524;10.938;2023-05-07T11:34:26;25.70;92.90
41256;DHT22;26989;45.524;10.938;2023-05-07T11:37:00;25.60;93.40
41256;DHT22;26989;45.524;10.938;2023-05-07T11:39:30;25.50;93.20
41256;DHT22;26989;45.524;10.938;2023-05-07T11:42:00;25.30;93.00
41256;DHT22;26989;45.524;10.938;2023-05-07T11:44:44;25.60;93.10
41256;DHT22;26989;45.524;10.938;2023-05-07T11:47:19;25.20;92.40
41256;DHT22;26989;45.524;10.938;2023-05-07T11:49:48;25.60;92.90
41256;DHT22;26989;45.524;10.938;2023-05-07T11:52:16;25.80;92.10
41256;DHT22;26989;45.524;10.938;2023-05-07T11:54:53;25.70;92.40
41256;DHT22;26989;45.524;10.938;2023-05-07T11:57:22;25.10;93.30
41256;DHT22;26989;45.524;10.938;2023-05-07T11:59:58;25.30;93.30
41256;DHT22;26989;45.524;10.938;2023-05-07T12:02:26;25.60;93.20
41256;DHT22;26989;45.524;10.938;2023-05-07T12:04:55;25.90;93.50
41256;DHT22;26989;45.524;10.938;2023-05-07T12:07:24;26.20;92.40
41256;DHT22;26989;45.524;10.938;2023-05-07T12:09:54;26.00;92.20
41256;DHT22;26989;45.524;10.938;2023-05-07T12:12:21;26.20;92.40
41256;DHT22;26989;45.524;10.938;2023-05-07T12:14:48;26.50;92.90
41256;DHT22;26989;45.524;10.938;2023-05-07T12:17:16;26.60;92.60
41256;DHT22;26989;45.524;10.938;2023-05-07T12:19:44;26.60;92.50
41256;DHT22;26989;45.524;10.938;2023-05-07T12:22:12;26.90;93.00
41256;DHT22;26989;45.524;10.938;2023-05-07T12:24:56;27.10;92.20
41256;DHT22;26989;45.524;10.938;2023-05-07T12:27:24;27.10;92.00
41256;DHT22;26989;45.524;10.938;2023-05-07T12:29:51;27.10;92.20
41256;DHT22;26989;45.524;10.938;2023-05-07T12:32:21;27.00;91.70
41256;DHT22;26989;45.524;10.938;2023-05-07T12:34:51;26.80;92.10
41256;DHT22;26989;45.524;10.938;2023-05-07T12:37:26;26.60;92.10
41256;DHT22;26989;45.524;10.938;2023-05-07T12:40:10;26.60;92.30
41256;DHT22;26989;45.524;10.938;2023-05-07T12:42:39;27.00;92.00
41256;DHT22;26989;45.524;10.938;2023-05-07T12:45:15;27.00;92.10
41256;DHT22;26989;45.524;10.938;2023-05-07T12:47:47;27.30;91.40
41256;DHT22;26989;45.524;10.938;2023-05-07T12:50:15;27.40;90.70
41256;DHT22;26989;45.524;10.938;2023-05-07T12:52:47;27.20;91.20
41256;DHT22;26989;45.524;10.938;2023-05-07T12:55:16;27.50;91.40
41256;DHT22;26989;45.524;10.938;2023-05-07T12:57:47;27.50;91.50
41256;DHT22;26989;45.524;10.938;2023-05-07T13:00:15;27.60;91.10
41256;DHT22;26989;45.524;10.938;2023-05-07T13:02:43;27.50;90.80
41256;DHT22;26989;45.524;10.938;2023-05-07T13:05:11;27.20;90.80
41256;DHT22;26989;45.524;10.938;2023-05-07T13:07:39;27.30;91.50
41256;DHT22;26989;45.524;10.938;2023-05-07T13:10:08;27.40;91.30
41256;DHT22;26989;45.524;10.938;2023-05-07T13:12:35;27.70;90.60
41256;DHT22;26989;45.524;10.938;2023-05-07T13:15:02;27.60;90.60
41256;DHT22;26989;45.524;10.938;2023-05-07T13:17:29;27.80;90.80
41256;DHT22;26989;45.524;10.938;2023-05-07T13:20:01;27.90;90.90
41256;DHT22;26989;45.524;10.938;2023-05-07T13:22:30;28.10;90.40
41256;DHT22;26989;45.524;10.938;2023-05-07T13:24:57;28.10;90.30
41256;DHT22;26989;45.524;10.938;2023-05-07T13:27:24;28.40;90.00
41256;DHT22;26989;45.524;10.938;2023-05-07T13:29:51;28.00;88.90
41256;DHT22;26989;45.524;10.938;2023-05-07T13:32:18;28.40;89.90
41256;DHT22;26989;45.524;10.938;2023-05-07T13:34:46;29.00;89.40
41256;DHT22;26989;45.524;10.938;2023-05-07T13:37:24;28.80;89.60
41256;DHT22;26989;45.524;10.938;2023-05-07T13:39:51;29.00;89.70
41256;DHT22;26989;45.524;10.938;2023-05-07T13:42:21;28.80;88.80
41256;DHT22;26989;45.524;10.938;2023-05-07T13:44:49;28.80;88.40
41256;DHT22;26989;45.524;10.938;2023-05-07T13:47:15;28.80;89.40
41256;DHT22;26989;45.524;10.938;2023-05-07T13:49:42;28.90;88.60
41256;DHT22;26989;45.524;10.938;2023-05-07T13:52:09;28.80;88.20
41256;DHT22;26989;45.524;10.938;2023-05-07T13:54:37;28.70;87.30
41256;DHT22;26989;45.524;10.938;2023-05-07T13:57:04;29.10;87.30
41256;DHT22;26989;45.524;10.938;2023-05-07T13:59:31;29.00;87.40
41256;DHT22;26989;45.524;10.938;2023-05-07T14:01:58;28.90;87.70
41256;DHT22;26989;45.524;10.938;2023-05-07T14:04:25;29.10;87.60
41256;DHT22;26989;45.524;10.938;2023-05-07T14:06:52;29.00;87.00
41256;DHT22;26989;45.524;10.938;2023-05-07T14:09:21;29.20;86.00
41256;DHT22;26989;45.524;10.938;2023-05-07T14:11:48;28.80;86.70
41256;DHT22;26989;45.524;10.938;2023-05-07T14:14:18;28.90;87.00
41256;DHT22;26989;45.524;10.938;2023-05-07T14:16:45;28.30;86.30
41256;DHT22;26989;45.524;10.938;2023-05-07T14:19:16;26.70;88.10
41256;DHT22;26989;45.524;10.938;2023-05-07T14:21:57;27.30;88.20
41256;DHT22;26989;45.524;10.938;2023-05-07T14:24:26;28.20;88.70
41256;DHT22;26989;45.524;10.938;2023-05-07T14:27:04;28.50;88.20
41256;DHT22;26989;45.524;10.938;2023-05-07T14:29:32;28.70;87.60
41256;DHT22;26989;45.524;10.938;2023-05-07T14:31:59;28.80;87.20
41256;DHT22;26989;45.524;10.938;2023-05-07T14:34:26;27.60;88.20
41256;DHT22;26989;45.524;10.938;2023-05-07T14:36:53;27.10;89.00
41256;DHT22;26989;45.524;10.938;2023-05-07T14:39:21;27.40;89.70
41256;DHT22;26989;45.524;10.938;2023-05-07T14:41:48;27.50;88.80
41256;DHT22;26989;45.524;10.938;2023-05-07T14:44:15;27.50;87.70
41256;DHT22;26989;45.524;10.938;2023-05-07T14:46:42;27.40;88.40
41256;DHT22;26989;45.524;10.938;2023-05-07T14:49:09;27.40;88.40
41256;DHT22;26989;45.524;10.938;2023-05-07T14:51:47;27.00;88.90
41256;DHT22;26989;45.524;10.938;2023-05-07T14:54:14;26.30;89.30
41256;DHT22;26989;45.524;10.938;2023-05-07T14:56:41;26.60;89.70
41256;DHT22;26989;45.524;10.938;2023-05-07T14:59:08;26.60;89.60
41256;DHT22;26989;45.524;10.938;2023-05-07T15:01:36;26.70;90.10
41256;DHT22;26989;45.524;10.938;2023-05-07T15:04:04;26.80;90.00
41256;DHT22;26989;45.524;10.938;2023-05-07T15:06:32;26.60;90.10
41256;DHT22;26989;45.524;10.938;2023-05-07T15:09:01;26.60;90.10
41256;DHT22;26989;45.524;10.938;2023-05-07T15:11:27;26.60;90.30
41256;DHT22;26989;45.524;10.938;2023-05-07T15:13:54;26.60;90.40
41256;DHT22;26989;45.524;10.938;2023-05-07T15:16:22;26.60;89.10
41256;DHT22;26989;45.524;10.938;2023-05-07T15:18:49;26.70;89.00
41256;DHT22;26989;45.524;10.938;2023-05-07T15:21:15;26.80;89.50
41256;DHT22;26989;45.524;10.938;2023-05-07T15:23:43;26.90;89.20
41256;DHT22;26989;45.524;10.938;2023-05-07T15:26:11;26.80;89.20
41256;DHT22;26989;45.524;10.938;2023-05-07T15:28:37;27.00;89.70
41256;DHT22;26989;45.524;10.938;2023-05-07T15:31:06;27.20;89.10
41256;DHT22;26989;45.524;10.938;2023-05-07T15:33:33;27.30;87.60
41256;DHT22;26989;45.524;10.938;2023-05-07T15:36:00;27.30;87.50
41256;DHT22;26989;45.524;10.938;2023-05-07T15:38:28;27.40;88.30
41256;DHT22;26989;45.524;10.938;2023-05-07T15:40:55;27.30;89.10
41256;DHT22;26989;45.524;10.938;2023-05-07T15:43:22;27.30;88.70
41256;DHT22;26989;45.524;10.938;2023-05-07T15:45:49;27.10;88.00
41256;DHT22;26989;45.524;10.938;2023-05-07T15:48:16;27.40;87.70
41256;DHT22;26989;45.524;10.938;2023-05-07T15:50:43;27.30;88.10
41256;DHT22;26989;45.524;10.938;2023-05-07T15:53:10;27.20;88.30
41256;DHT22;26989;45.524;10.938;2023-05-07T15:55:40;27.10;88.60
41256;DHT22;26989;45.524;10.938;2023-05-07T15:58:08;27.10;88.80
41256;DHT22;26989;45.524;10.938;2023-05-07T16:00:37;27.00;89.40
41256;DHT22;26989;45.524;10.938;2023-05-07T16:03:06;26.90;90.10
41256;DHT22;26989;45.524;10.938;2023-05-07T16:05:34;26.60;90.00
41256;DHT22;26989;45.524;10.938;2023-05-07T16:08:01;26.50;90.30
41256;DHT22;26989;45.524;10.938;2023-05-07T16:10:29;26.30;89.70
41256;DHT22;26989;45.524;10.938;2023-05-07T16:12:57;26.40;90.00
41256;DHT22;26989;45.524;10.938;2023-05-07T16:15:24;26.60;89.20
41256;DHT22;26989;45.524;10.938;2023-05-07T16:17:51;26.60;89.00
41256;DHT22;26989;45.524;10.938;2023-05-07T16:20:27;26.60;89.50
41256;DHT22;26989;45.524;10.938;2023-05-07T16:22:57;26.60;90.20
41256;DHT22;26989;45.524;10.938;2023-05-07T16:25:25;26.40;89.90
41256;DHT22;26989;45.524;10.938;2023-05-07T16:27:52;26.30;90.40
41256;DHT22;26989;45.524;10.938;2023-05-07T16:30:22;26.20;90.00
41256;DHT22;26989;45.524;10.938;2023-05-07T16:32:48;26.40;89.80
41256;DHT22;26989;45.524;10.938;2023-05-07T16:35:16;25.30;92.40
41256;DHT22;26989;45.524;10.938;2023-05-07T16:37:43;25.20;93.30
41256;DHT22;26989;45.524;10.938;2023-05-07T16:40:11;24.90;93.80
41256;DHT22;26989;45.524;10.938;2023-05-07T16:42:38;24.80;94.60
41256;DHT22;26989;45.524;10.938;2023-05-07T16:45:05;24.30;94.90
41256;DHT22;26989;45.524;10.938;2023-05-07T16:47:32;23.90;95.10
41256;DHT22;26989;45.524;10.938;2023-05-07T16:49:59;23.80;95.80
41256;DHT22;26989;45.524;10.938;2023-05-07T16:52:28;24.30;95.50
41256;DHT22;26989;45.524;10.938;2023-05-07T16:54:55;23.80;96.40
41256;DHT22;26989;45.524;10.938;2023-05-07T16:57:27;24.20;95.60
41256;DHT22;26989;45.524;10.938;2023-05-07T16:59:55;24.70;95.00
41256;DHT22;26989;45.524;10.938;2023-05-07T17:02:22;24.10;95.40
41256;DHT22;26989;45.524;10.938;2023-05-07T17:04:50;24.00;95.30
41256;DHT22;26989;45.524;10.938;2023-05-07T17:07:18;23.70;95.30
41256;DHT22;26989;45.524;10.938;2023-05-07T17:09:47;23.80;95.40
41256;DHT22;26989;45.524;10.938;2023-05-07T17:12:19;23.90;95.30
41256;DHT22;26989;45.524;10.938;2023-05-07T17:14:47;23.80;95.30
41256;DHT22;26989;45.524;10.938;2023-05-07T17:17:14;23.60;95.70
41256;DHT22;26989;45.524;10.938;2023-05-07T17:19:41;23.80;95.60
41256;DHT22;26989;45.524;10.938;2023-05-07T17:22:08;23.60;95.50
41256;DHT22;26989;45.524;10.938;2023-05-07T17:24:35;23.60;95.70
41256;DHT22;26989;45.524;10.938;2023-05-07T17:27:02;23.50;95.40
41256;DHT22;26989;45.524;10.938;2023-05-07T17:29:43;23.40;95.50
41256;DHT22;26989;45.524;10.938;2023-05-07T17:32:10;23.40;95.40
41256;DHT22;26989;45.524;10.938;2023-05-07T17:34:37;23.50;95.50
41256;DHT22;26989;45.524;10.938;2023-05-07T17:37:04;22.80;96.80
41256;DHT22;26989;45.524;10.938;2023-05-07T17:39:33;22.70;97.20
41256;DHT22;26989;45.524;10.938;2023-05-07T17:42:00;22.60;97.30
41256;DHT22;26989;45.524;10.938;2023-05-07T17:44:28;22.40;97.60
41256;DHT22;26989;45.524;10.938;2023-05-07T17:46:56;22.30;97.60
41256;DHT22;26989;45.524;10.938;2023-05-07T17:49:45;22.30;97.60
41256;DHT22;26989;45.524;10.938;2023-05-07T17:52:12;22.20;97.70
41256;DHT22;26989;45.524;10.938;2023-05-07T17:54:39;22.20;97.60
41256;DHT22;26989;45.524;10.938;2023-05-07T17:57:07;22.00;98.50
41256;DHT22;26989;45.524;10.938;2023-05-07T17:59:34;22.00;98.30
41256;DHT22;26989;45.524;10.938;2023-05-07T18:02:01;22.00;98.20
41256;DHT22;26989;45.524;10.938;2023-05-07T18:04:27;22.20;98.00
41256;DHT22;26989;45.524;10.938;2023-05-07T18:06:55;22.20;97.40
41256;DHT22;26989;45.524;10.938;2023-05-07T18:09:23;22.20;97.60
41256;DHT22;26989;45.524;10.938;2023-05-07T18:11:50;22.20;97.50
41256;DHT22;26989;45.524;10.938;2023-05-07T18:14:17;22.30;97.50
41256;DHT22;26989;45.524;10.938;2023-05-07T18:16:50;22.30;97.40
41256;DHT22;26989;45.524;10.938;2023-05-07T18:19:17;21.80;99.00
41256;DHT22;26989;45.524;10.938;2023-05-07T18:21:44;21.30;99.90
41256;DHT22;26989;45.524;10.938;2023-05-07T18:24:11;21.20;99.90
41256;DHT22;26989;45.524;10.938;2023-05-07T18:26:38;21.20;99.90
41256;DHT22;26989;45.524;10.938;2023-05-07T18:29:05;21.10;99.90
41256;DHT22;26989;45.524;10.938;2023-05-07T18:31:31;21.10;99.90
41256;DHT22;26989;45.524;10.938;2023-05-07T18:34:03;21.00;99.90
41256;DHT22;26989;45.524;10.938;2023-05-07T18:36:29;21.00;99.90
41256;DHT22;26989;45.524;10.938;2023-05-07T18:38:57;21.10;99.90
41256;DHT22;26989;45.524;10.938;2023-05-07T18:41:28;21.10;99.90
41256;DHT22;26989;45.524;10.938;2023-05-07T18:43:57;21.00;99.90
41256;DHT22;26989;45.524;10.938;2023-05-07T18:46:26;20.90;99.90
41256;DHT22;26989;45.524;10.938;2023-05-07T18:48:55;21.00;99.90
41256;DHT22;26989;45.524;10.938;2023-05-07T18:51:37;21.00;99.90
41256;DHT22;26989;45.524;10.938;2023-05-07T18:54:45;21.00;99.90
41256;DHT22;26989;45.524;10.938;2023-05-07T18:57:51;21.00;99.90
41256;DHT22;26989;45.524;10.938;2023-05-07T19:00:23;21.00;99.90
41256;DHT22;26989;45.524;10.938;2023-05-07T19:02:52;21.00;99.90
41256;DHT22;26989;45.524;10.938;2023-05-07T19:05:32;20.90;99.90
41256;DHT22;26989;45.524;10.938;2023-05-07T19:08:01;20.80;99.90
41256;DHT22;26989;45.524;10.938;2023-05-07T19:10:28;20.80;99.90
41256;DHT22;26989;45.524;10.938;2023-05-07T19:12:56;20.70;99.90
41256;DHT22;26989;45.524;10.938;2023-05-07T19:15:23;20.60;99.90
41256;DHT22;26989;45.524;10.938;2023-05-07T19:17:51;20.60;99.90
41256;DHT22;26989;45.524;10.938;2023-05-07T19:20:18;20.80;99.90
41256;DHT22;26989;45.524;10.938;2023-05-07T19:22:45;20.90;99.90
41256;DHT22;26989;45.524;10.938;2023-05-07T19:25:12;21.00;99.90
41256;DHT22;26989;45.524;10.938;2023-05-07T19:27:42;20.90;99.90
41256;DHT22;26989;45.524;10.938;2023-05-07T19:30:09;20.80;99.90
41256;DHT22;26989;45.524;10.938;2023-05-07T19:32:45;20.80;99.90
41256;DHT22;26989;45.524;10.938;2023-05-07T19:35:47;20.90;99.90
41256;DHT22;26989;45.524;10.938;2023-05-07T19:38:39;20.80;99.90
41256;DHT22;26989;45.524;10.938;2023-05-07T19:43:45;20.70;99.90
41256;DHT22;26989;45.524;10.938;2023-05-07T19:46:13;20.80;99.90
41256;DHT22;26989;45.524;10.938;2023-05-07T19:48:41;20.70;99.90
41256;DHT22;26989;45.524;10.938;2023-05-07T19:51:09;20.60;99.90
41256;DHT22;26989;45.524;10.938;2023-05-07T19:53:46;20.50;99.90
41256;DHT22;26989;45.524;10.938;2023-05-07T19:56:27;20.50;99.90
41256;DHT22;26989;45.524;10.938;2023-05-07T19:58:54;20.40;99.90
41256;DHT22;26989;45.524;10.938;2023-05-07T20:01:23;20.40;99.90
41256;DHT22;26989;45.524;10.938;2023-05-07T20:03:54;20.70;99.90
41256;DHT22;26989;45.524;10.938;2023-05-07T20:06:29;20.80;99.90
41256;DHT22;26989;45.524;10.938;2023-05-07T20:09:06;20.90;99.90
41256;DHT22;26989;45.524;10.938;2023-05-07T20:11:36;21.00;99.90
41256;DHT22;26989;45.524;10.938;2023-05-07T20:14:16;21.00;99.90
41256;DHT22;26989;45.524;10.938;2023-05-07T20:16:53;21.00;99.90
41256;DHT22;26989;45.524;10.938;2023-05-07T20:19:20;20.90;99.90
41256;DHT22;26989;45.524;10.938;2023-05-07T20:21:50;20.90;99.90
41256;DHT22;26989;45.524;10.938;2023-05-07T20:24:37;20.90;99.90
41256;DHT22;26989;45.524;10.938;2023-05-07T20:27:18;20.80;99.90
41256;DHT22;26989;45.524;10.938;2023-05-07T20:29:47;20.80;99.90
41256;DHT22;26989;45.524;10.938;2023-05-07T20:32:14;20.80;99.90
41256;DHT22;26989;45.524;10.938;2023-05-07T20:34:53;20.70;99.90
41256;DHT22;26989;45.524;10.938;2023-05-07T20:37:22;20.70;99.90
41256;DHT22;26989;45.524;10.938;2023-05-07T20:39:49;20.70;99.90
41256;DHT22;26989;45.524;10.938;2023-05-07T20:42:16;20.70;99.90
41256;DHT22;26989;45.524;10.938;2023-05-07T20:44:45;20.70;99.90
41256;DHT22;26989;45.524;10.938;2023-05-07T20:47:13;20.70;99.90
41256;DHT22;26989;45.524;10.938;2023-05-07T20:49:41;20.80;99.90
41256;DHT22;26989;45.524;10.938;2023-05-07T20:52:08;20.80;99.90
41256;DHT22;26989;45.524;10.938;2023-05-07T20:54:35;20.80;99.90
41256;DHT22;26989;45.524;10.938;2023-05-07T20:57:06;20.90;99.90
41256;DHT22;26989;45.524;10.938;2023-05-07T20:59:34;20.90;99.90
41256;DHT22;26989;45.524;10.938;2023-05-07T21:04:47;20.90;99.90
41256;DHT22;26989;45.524;10.938;2023-05-07T21:07:17;21.00;99.80
41256;DHT22;26989;45.524;10.938;2023-05-07T21:09:53;21.00;99.60
41256;DHT22;26989;45.524;10.938;2023-05-07T21:12:21;21.00;99.50
41256;DHT22;26989;45.524;10.938;2023-05-07T21:14:48;21.10;99.40
41256;DHT22;26989;45.524;10.938;2023-05-07T21:17:15;21.00;99.70
41256;DHT22;26989;45.524;10.938;2023-05-07T21:19:42;21.00;99.30
41256;DHT22;26989;45.524;10.938;2023-05-07T21:22:09;21.00;99.60
41256;DHT22;26989;45.524;10.938;2023-05-07T21:24:36;20.90;99.90
41256;DHT22;26989;45.524;10.938;2023-05-07T21:27:03;20.90;99.90
41256;DHT22;26989;45.524;10.938;2023-05-07T21:29:31;20.90;99.90
41256;DHT22;26989;45.524;10.938;2023-05-07T21:31:58;20.80;99.90
41256;DHT22;26989;45.524;10.938;2023-05-07T21:34:27;20.70;99.90
41256;DHT22;26989;45.524;10.938;2023-05-07T21:36:54;20.40;99.90
41256;DHT22;26989;45.524;10.938;2023-05-07T21:39:21;20.10;99.90
41256;DHT22;26989;45.524;10.938;2023-05-07T21:41:50;20.10;98.90
41256;DHT22;26989;45.524;10.938;2023-05-07T21:44:17;20.20;98.20
41256;DHT22;26989;45.524;10.938;2023-05-07T21:46:44;20.30;96.70
41256;DHT22;26989;45.524;10.938;2023-05-07T21:49:11;20.40;96.40
41256;DHT22;26989;45.524;10.938;2023-05-07T21:51:38;20.30;97.20
41256;DHT22;26989;45.524;10.938;2023-05-07T21:54:05;19.90;97.10
41256;DHT22;26989;45.524;10.938;2023-05-07T21:56:32;19.00;99.10
41256;DHT22;26989;45.524;10.938;2023-05-07T21:58:59;17.50;99.90
41256;DHT22;26989;45.524;10.938;2023-05-07T22:01:26;17.00;99.90
41256;DHT22;26989;45.524;10.938;2023-05-07T22:03:53;16.30;99.90
41256;DHT22;26989;45.524;10.938;2023-05-07T22:06:21;15.70;99.90
41256;DHT22;26989;45.524;10.938;2023-05-07T22:08:48;15.20;99.90
41256;DHT22;26989;45.524;10.938;2023-05-07T22:11:15;15.60;99.90
41256;DHT22;26989;45.524;10.938;2023-05-07T22:13:43;15.60;99.90
41256;DHT22;26989;45.524;10.938;2023-05-07T22:16:09;15.30;99.90
41256;DHT22;26989;45.524;10.938;2023-05-07T22:18:36;15.20;99.90